Terminal Aerodrome Forecast
Issued by NWS

Home | Current Version | Previous Version | Text Only | Print | Product List | Glossary On
Versions: 1 2 3 4 5 6 7 8 9 10 11 12 13 14 15 16 17 18 19 20
679
FTUS43 KLSX 181734
TAFSUS
TAF
KSUS 181734Z 1818/1918 32019G34KT 6SM -SHRA SCT009 OVC012
      TEMPO 1818/1821 4SM -SHRA BKN009
     FM182200 31020G34KT P6SM -SHRA BKN022
     FM190000 31017G23KT P6SM SCT120
     FM190300 31012KT P6SM SCT100
     FM190900 31009KT P6SM SKC=

USA.gov is the U.S. government's official web portal to all federal, state and local government web resources and services.